Time;durP1;ratioP1;P1;durP2;ratioP2;P2;SDS_P1;SDS_P2;PMS_P1;PMS_P2;Temp;Humidity;BMP_temperature;BMP_pressure;BME280_temperature;BME280_humidity;BME280_pressure;Samples;Min_cycle;Max_cycle;Signal;HPM_P1;HPM_P2
2022/05/08 00:01:51;;;;;;;4.80;3.10;;;;;;;;;;5054982;28;20028;-35
2022/05/08 00:04:16;;;;;;;4.95;3.17;;;;;;;;;;5054811;28;20052;-35
2022/05/08 00:06:42;;;;;;;3.30;2.70;;;;;;;;;;5054808;28;20387;-35
2022/05/08 00:09:08;;;;;;;13.48;2.72;;;;;;;;;;5054850;28;20033;-35
2022/05/08 00:11:33;;;;;;;8.23;3.45;;;;;;;;;;5054823;28;20155;-35
2022/05/08 00:13:58;;;;;;;4.90;2.45;;;;;;;;;;5054639;28;20024;-35
2022/05/08 00:16:24;;;;;;;3.20;2.80;;;;;;;;;;5054564;28;20086;-35
2022/05/08 00:18:49;;;;;;;5.60;2.60;;;;;;;;;;5054836;28;20052;-36
2022/05/08 00:21:15;;;;;;;10.88;3.10;;;;;;;;;;5054588;28;20116;-35
2022/05/08 00:23:40;;;;;;;7.28;3.00;;;;;;;;;;5054634;28;20544;-35
2022/05/08 00:26:07;;;;;;;6.82;3.40;;;;;;;;;;5054475;28;20052;-35
2022/05/08 00:28:37;;;;;;;5.45;3.60;;;;;;;;;;5054416;28;20017;-36
2022/05/08 00:31:02;;;;;;;4.22;3.05;;;;;;;;;;5054466;28;20017;-36
2022/05/08 00:33:27;;;;;;;3.97;3.00;;;;;;;;;;5054255;28;20090;-35
2022/05/08 00:35:54;;;;;;;8.88;3.22;;;;;;;;;;5054345;28;20053;-35
2022/05/08 00:38:19;;;;;;;6.43;3.25;;;;;;;;;;5054129;28;20475;-35
2022/05/08 00:40:44;;;;;;;4.80;3.55;;;;;;;;;;5054325;28;20064;-35
2022/05/08 00:43:31;;;;;;;3.63;2.78;;;;;;;;;;5036611;28;20019;-35
2022/05/08 00:45:56;;;;;;;5.82;3.03;;;;;;;;;;5036400;28;20082;-35
2022/05/08 00:48:22;;;;;;;3.20;2.53;;;;;;;;;;5054065;28;20021;-35
2022/05/08 00:50:48;;;;;;;6.03;3.05;;;;;;;;;;5054000;28;20486;-35
2022/05/08 00:53:13;;;;;;;6.10;3.20;;;;;;;;;;5054220;28;20372;-35
2022/05/08 00:55:39;;;;;;;4.10;2.85;;;;;;;;;;5053758;28;20040;-35
2022/05/08 00:58:05;;;;;;;6.32;3.42;;;;;;;;;;5053913;28;20032;-36
2022/05/08 01:00:30;;;;;;;4.57;3.47;;;;;;;;;;5054023;28;20573;-35
2022/05/08 01:02:59;;;;;;;4.30;3.15;;;;;;;;;;5052762;28;20492;-35
2022/05/08 01:05:24;;;;;;;8.82;2.83;;;;;;;;;;5053741;28;20032;-35
2022/05/08 01:07:55;;;;;;;3.85;3.03;;;;;;;;;;5053987;28;20036;-36
2022/05/08 01:10:21;;;;;;;4.07;2.40;;;;;;;;;;5053573;28;20033;-35
2022/05/08 01:12:46;;;;;;;6.00;3.13;;;;;;;;;;5035836;28;20090;-35
2022/05/08 01:15:12;;;;;;;3.72;2.70;;;;;;;;;;5053893;28;20036;-37
2022/05/08 01:17:37;;;;;;;3.65;2.95;;;;;;;;;;5053625;28;20024;-35
2022/05/08 01:20:03;;;;;;;8.80;3.53;;;;;;;;;;5053732;28;20476;-35
2022/05/08 01:22:28;;;;;;;3.78;2.80;;;;;;;;;;5053491;28;20464;-35
2022/05/08 01:24:53;;;;;;;4.15;3.28;;;;;;;;;;5053692;28;20029;-35
2022/05/08 01:27:19;;;;;;;6.00;3.40;;;;;;;;;;5053359;28;20013;-35
2022/05/08 01:29:44;;;;;;;4.82;3.20;;;;;;;;;;5053444;28;20029;-35
2022/05/08 01:32:10;;;;;;;7.38;2.60;;;;;;;;;;5053429;28;20079;-35
2022/05/08 01:34:35;;;;;;;4.15;3.45;;;;;;;;;;5053264;28;20040;-35
2022/05/08 01:37:01;;;;;;;4.72;2.95;;;;;;;;;;5053395;28;20017;-35
2022/05/08 01:39:27;;;;;;;6.05;3.30;;;;;;;;;;5052908;28;20064;-35
2022/05/08 01:41:52;;;;;;;4.95;3.08;;;;;;;;;;5053042;28;20017;-35
2022/05/08 01:44:17;;;;;;;4.30;3.33;;;;;;;;;;5052911;28;20479;-35
2022/05/08 01:46:43;;;;;;;8.75;3.65;;;;;;;;;;5053169;28;20464;-35
2022/05/08 01:49:08;;;;;;;5.57;3.65;;;;;;;;;;5052885;28;20040;-35
2022/05/08 01:51:33;;;;;;;11.95;3.85;;;;;;;;;;5052797;28;20016;-36
2022/05/08 01:54:00;;;;;;;5.82;3.53;;;;;;;;;;5052788;28;20040;-35
2022/05/08 01:56:25;;;;;;;4.68;3.30;;;;;;;;;;5052964;28;20063;-35
2022/05/08 01:58:52;;;;;;;13.23;3.47;;;;;;;;;;5052722;28;20430;-35
2022/05/08 02:01:18;;;;;;;4.95;3.50;;;;;;;;;;5034843;28;20033;-36
2022/05/08 02:03:43;;;;;;;4.97;3.55;;;;;;;;;;5052566;28;20151;-35
2022/05/08 02:06:09;;;;;;;7.93;4.38;;;;;;;;;;5052913;28;20064;-35
2022/05/08 02:08:34;;;;;;;6.07;3.38;;;;;;;;;;5052529;28;20029;-35
2022/05/08 02:10:59;;;;;;;6.78;4.57;;;;;;;;;;5052882;28;20028;-35
2022/05/08 02:13:25;;;;;;;10.23;4.22;;;;;;;;;;5052410;28;20040;-35
2022/05/08 02:15:50;;;;;;;5.22;3.92;;;;;;;;;;5052537;28;20032;-35
2022/05/08 02:18:16;;;;;;;6.32;3.90;;;;;;;;;;5052655;28;20036;-35
2022/05/08 02:20:41;;;;;;;20.23;4.45;;;;;;;;;;5034501;28;20091;-35
2022/05/08 02:23:07;;;;;;;13.07;4.07;;;;;;;;;;5052535;28;20060;-35
2022/05/08 02:25:34;;;;;;;4.35;3.00;;;;;;;;;;5052529;28;20051;-35
2022/05/08 02:28:00;;;;;;;5.55;2.83;;;;;;;;;;5052195;28;20046;-35
2022/05/08 02:30:25;;;;;;;3.85;3.15;;;;;;;;;;5052047;28;20025;-35
2022/05/08 02:32:52;;;;;;;6.47;3.55;;;;;;;;;;5052368;28;20029;-35
2022/05/08 02:35:21;;;;;;;5.85;4.10;;;;;;;;;;5052007;28;20025;-35
2022/05/08 02:37:52;;;;;;;5.07;3.67;;;;;;;;;;5052054;28;20074;-35
2022/05/08 02:40:18;;;;;;;7.47;3.42;;;;;;;;;;5051832;28;20044;-36
2022/05/08 02:42:44;;;;;;;3.80;3.03;;;;;;;;;;5051888;28;20036;-35
2022/05/08 02:45:09;;;;;;;5.82;2.88;;;;;;;;;;5051870;28;20029;-38
2022/05/08 02:47:36;;;;;;;3.78;2.90;;;;;;;;;;5052068;28;20029;-35
2022/05/08 02:50:03;;;;;;;5.20;3.22;;;;;;;;;;5051808;28;20029;-35
2022/05/08 02:52:28;;;;;;;3.63;2.65;;;;;;;;;;5051641;28;20028;-35
2022/05/08 02:54:53;;;;;;;4.55;3.13;;;;;;;;;;5051838;28;20029;-35
2022/05/08 03:00:05;;;;;;;3.80;2.50;;;;;;;;;;5051723;28;20068;-34
2022/05/08 03:02:34;;;;;;;5.57;3.05;;;;;;;;;;5051569;28;20029;-35
2022/05/08 03:05:01;;;;;;;3.03;2.70;;;;;;;;;;5051545;28;20040;-35
2022/05/08 03:07:27;;;;;;;3.90;2.78;;;;;;;;;;5051738;28;20040;-35
2022/05/08 03:09:52;;;;;;;4.22;2.63;;;;;;;;;;5051612;28;20037;-35
2022/05/08 03:12:17;;;;;;;3.80;2.95;;;;;;;;;;5051453;28;20104;-35
2022/05/08 03:14:43;;;;;;;4.57;2.58;;;;;;;;;;5051366;28;20029;-35
2022/05/08 03:17:08;;;;;;;7.75;2.90;;;;;;;;;;5051451;28;20056;-35
2022/05/08 03:19:33;;;;;;;4.80;2.80;;;;;;;;;;5051217;28;20040;-35
2022/05/08 03:21:59;;;;;;;5.45;3.22;;;;;;;;;;5050035;28;20116;-35
2022/05/08 03:24:24;;;;;;;13.50;4.15;;;;;;;;;;5052859;28;20029;-35
2022/05/08 03:26:50;;;;;;;5.18;2.95;;;;;;;;;;5058185;28;20056;-35
2022/05/08 03:29:15;;;;;;;4.47;3.00;;;;;;;;;;5058321;28;20090;-36
2022/05/08 03:31:42;;;;;;;4.57;3.08;;;;;;;;;;5057864;28;20021;-35
2022/05/08 03:34:07;;;;;;;9.30;2.97;;;;;;;;;;5058037;28;20032;-35
2022/05/08 03:36:32;;;;;;;4.05;3.40;;;;;;;;;;5057821;28;20020;-35
2022/05/08 03:38:58;;;;;;;4.05;3.08;;;;;;;;;;5057874;28;20037;-35
2022/05/08 03:41:23;;;;;;;8.40;2.78;;;;;;;;;;5057687;28;20102;-35
2022/05/08 03:43:50;;;;;;;9.32;3.35;;;;;;;;;;5057950;28;20028;-35
2022/05/08 03:46:16;;;;;;;7.80;3.75;;;;;;;;;;5058096;28;20103;-35
2022/05/08 03:48:42;;;;;;;5.07;3.63;;;;;;;;;;5057828;28;20491;-35
2022/05/08 03:51:10;;;;;;;4.50;3.67;;;;;;;;;;5040135;28;20150;-35
2022/05/08 03:53:36;;;;;;;7.10;3.42;;;;;;;;;;5057955;28;20484;-35
2022/05/08 03:56:02;;;;;;;18.45;4.60;;;;;;;;;;5058090;28;20025;-35
2022/05/08 03:58:28;;;;;;;11.05;3.88;;;;;;;;;;5057878;28;20029;-35
2022/05/08 04:00:53;;;;;;;17.88;3.80;;;;;;;;;;5057794;28;20459;-35
2022/05/08 04:03:19;;;;;;;9.75;4.35;;;;;;;;;;5039543;28;20052;-35
2022/05/08 04:05:44;;;;;;;26.77;5.05;;;;;;;;;;5056561;28;20029;-35
2022/05/08 04:08:09;;;;;;;8.02;4.30;;;;;;;;;;5057615;28;20035;-35
2022/05/08 04:10:35;;;;;;;5.32;4.05;;;;;;;;;;5057588;28;20191;-35
2022/05/08 04:13:00;;;;;;;33.78;6.65;;;;;;;;;;5057632;28;20096;-36
2022/05/08 04:18:10;;;;;;;8.88;4.03;;;;;;;;;;5057848;28;20029;-35
2022/05/08 04:20:36;;;;;;;6.70;5.25;;;;;;;;;;5039555;28;20485;-35
2022/05/08 04:25:46;;;;;;;8.65;5.18;;;;;;;;;;5057606;28;20454;-35
2022/05/08 04:28:12;;;;;;;8.32;5.78;;;;;;;;;;5057478;28;20024;-35
2022/05/08 04:30:38;;;;;;;12.32;5.25;;;;;;;;;;5057414;28;20044;-35
2022/05/08 04:33:03;;;;;;;7.93;5.40;;;;;;;;;;5057423;28;20021;-35
2022/05/08 04:35:29;;;;;;;14.77;5.10;;;;;;;;;;5056844;28;20451;-35
2022/05/08 04:37:54;;;;;;;7.13;5.65;;;;;;;;;;5053313;28;20017;-35
2022/05/08 04:40:20;;;;;;;15.45;6.00;;;;;;;;;;5054166;28;20048;-35
2022/05/08 04:42:45;;;;;;;8.30;5.72;;;;;;;;;;5054099;28;20021;-35
2022/05/08 04:45:10;;;;;;;8.43;4.80;;;;;;;;;;5054085;28;20021;-35
2022/05/08 04:47:36;;;;;;;27.08;5.97;;;;;;;;;;5054458;28;20025;-35
2022/05/08 04:50:01;;;;;;;13.18;5.25;;;;;;;;;;5054481;28;20029;-36
2022/05/08 04:52:27;;;;;;;7.20;5.07;;;;;;;;;;5053917;28;20613;-35
2022/05/08 04:54:52;;;;;;;8.07;5.32;;;;;;;;;;5054219;28;20112;-37
2022/05/08 04:57:17;;;;;;;6.97;5.32;;;;;;;;;;5053849;28;20017;-35
2022/05/08 04:59:45;;;;;;;5.35;4.43;;;;;;;;;;5053742;28;20479;-35
2022/05/08 05:02:12;;;;;;;11.23;4.47;;;;;;;;;;5053810;28;20070;-35
2022/05/08 05:04:37;;;;;;;8.88;4.38;;;;;;;;;;5053565;28;20048;-36
2022/05/08 05:07:03;;;;;;;6.75;4.80;;;;;;;;;;5053860;28;20021;-35
2022/05/08 05:09:28;;;;;;;13.02;4.30;;;;;;;;;;5053769;28;20094;-36
2022/05/08 05:15:32;;;;;;;7.15;4.90;;;;;;;;;;5053830;28;20403;-35
2022/05/08 05:18:01;;;;;;;10.15;3.97;;;;;;;;;;5053868;28;20029;-35
2022/05/08 05:20:26;;;;;;;6.20;4.47;;;;;;;;;;5053245;28;20102;-35
2022/05/08 05:22:52;;;;;;;8.65;4.80;;;;;;;;;;5053408;28;20460;-35
2022/05/08 05:25:17;;;;;;;6.60;4.75;;;;;;;;;;5053628;28;20083;-35
2022/05/08 05:27:45;;;;;;;9.80;4.50;;;;;;;;;;5053447;28;20056;-35
2022/05/08 05:30:10;;;;;;;7.75;4.20;;;;;;;;;;5053273;28;20025;-35
2022/05/08 05:32:36;;;;;;;9.70;3.72;;;;;;;;;;5053162;28;20028;-35
2022/05/08 05:35:01;;;;;;;11.65;4.78;;;;;;;;;;5053224;28;20028;-35
2022/05/08 05:37:27;;;;;;;6.60;4.53;;;;;;;;;;5053046;28;20066;-35
2022/05/08 05:39:52;;;;;;;9.32;4.47;;;;;;;;;;5053039;28;20102;-36
2022/05/08 05:42:18;;;;;;;7.35;4.22;;;;;;;;;;5053058;28;20051;-35
2022/05/08 05:44:43;;;;;;;11.23;4.10;;;;;;;;;;5052988;28;20103;-35
2022/05/08 05:49:53;;;;;;;8.30;4.82;;;;;;;;;;5053295;28;20147;-35
2022/05/08 05:52:19;;;;;;;7.00;3.72;;;;;;;;;;5052871;28;20451;-39
2022/05/08 05:54:44;;;;;;;7.25;4.45;;;;;;;;;;5052758;28;20040;-35
2022/05/08 05:57:10;;;;;;;7.40;4.30;;;;;;;;;;5052977;28;20028;-35
2022/05/08 05:59:35;;;;;;;7.75;4.57;;;;;;;;;;5052608;28;20049;-35
2022/05/08 06:02:01;;;;;;;10.43;3.85;;;;;;;;;;5052702;28;20032;-35
2022/05/08 06:04:26;;;;;;;9.25;5.07;;;;;;;;;;5052523;28;20055;-35
2022/05/08 06:06:52;;;;;;;5.45;4.20;;;;;;;;;;5052577;28;20033;-35
2022/05/08 06:09:17;;;;;;;4.70;3.92;;;;;;;;;;5034753;28;20048;-35
2022/05/08 06:11:44;;;;;;;6.35;4.57;;;;;;;;;;5052407;28;20063;-35
2022/05/08 06:14:10;;;;;;;8.25;4.65;;;;;;;;;;5052492;28;20034;-36
2022/05/08 06:16:35;;;;;;;5.78;4.25;;;;;;;;;;5052512;28;20025;-35
2022/05/08 06:19:01;;;;;;;6.47;5.07;;;;;;;;;;5052524;28;20754;-35
2022/05/08 06:21:27;;;;;;;6.28;4.32;;;;;;;;;;5052257;28;20074;-35
2022/05/08 06:23:54;;;;;;;8.93;5.18;;;;;;;;;;5052519;28;20038;-35
2022/05/08 06:26:19;;;;;;;7.65;5.20;;;;;;;;;;5052190;28;20032;-35
2022/05/08 06:28:45;;;;;;;5.90;4.55;;;;;;;;;;5052158;28;20061;-35
2022/05/08 06:31:15;;;;;;;10.82;4.78;;;;;;;;;;5034179;28;20469;-35
2022/05/08 06:33:42;;;;;;;5.93;4.30;;;;;;;;;;5052109;28;20036;-35
2022/05/08 06:36:08;;;;;;;6.90;4.40;;;;;;;;;;5052178;28;20021;-35
2022/05/08 06:38:33;;;;;;;7.57;4.68;;;;;;;;;;5052206;28;20036;-35
2022/05/08 06:40:58;;;;;;;7.68;5.68;;;;;;;;;;5052033;28;20480;-35
2022/05/08 06:43:24;;;;;;;7.70;5.13;;;;;;;;;;5051821;28;20115;-35
2022/05/08 06:45:49;;;;;;;12.50;4.97;;;;;;;;;;5051941;28;20053;-35
2022/05/08 06:48:15;;;;;;;7.78;5.18;;;;;;;;;;5051921;28;20033;-35
2022/05/08 06:50:40;;;;;;;8.40;4.65;;;;;;;;;;5051751;28;20023;-35
2022/05/08 06:53:06;;;;;;;7.28;5.53;;;;;;;;;;5051649;28;20135;-35
2022/05/08 06:55:35;;;;;;;11.18;5.10;;;;;;;;;;5033870;28;20021;-35
2022/05/08 06:58:01;;;;;;;6.20;4.60;;;;;;;;;;5052012;28;20039;-35
2022/05/08 07:03:10;;;;;;;10.77;5.40;;;;;;;;;;5051514;28;20049;-35
2022/05/08 07:05:40;;;;;;;11.05;5.43;;;;;;;;;;5051633;28;20067;-35
2022/05/08 07:08:06;;;;;;;6.40;4.97;;;;;;;;;;5051503;28;20029;-35
2022/05/08 07:10:31;;;;;;;7.40;5.45;;;;;;;;;;5051506;28;20021;-35
2022/05/08 07:12:57;;;;;;;7.47;4.97;;;;;;;;;;5051425;28;20028;-35
2022/05/08 07:15:23;;;;;;;8.15;4.93;;;;;;;;;;5051831;28;20021;-35
2022/05/08 07:17:48;;;;;;;8.57;6.18;;;;;;;;;;5033959;28;20032;-35
2022/05/08 07:20:13;;;;;;;7.05;4.97;;;;;;;;;;5051317;28;20445;-35
2022/05/08 07:22:39;;;;;;;6.72;5.00;;;;;;;;;;5051389;28;20021;-35
2022/05/08 07:25:05;;;;;;;6.25;4.05;;;;;;;;;;5051524;28;20387;-35
2022/05/08 07:27:36;;;;;;;7.63;4.93;;;;;;;;;;5033399;28;20044;-36
2022/05/08 07:30:02;;;;;;;7.88;4.85;;;;;;;;;;5051439;28;20037;-35
2022/05/08 07:32:28;;;;;;;7.22;5.20;;;;;;;;;;5051232;28;20025;-35
2022/05/08 07:37:37;;;;;;;8.95;5.68;;;;;;;;;;5051265;28;20505;-35
2022/05/08 07:40:03;;;;;;;6.65;5.00;;;;;;;;;;5051201;28;20025;-35
2022/05/08 07:42:29;;;;;;;9.85;5.55;;;;;;;;;;5051042;28;20118;-35
2022/05/08 07:44:54;;;;;;;9.18;5.35;;;;;;;;;;5051591;28;20120;-35
2022/05/08 07:47:21;;;;;;;9.55;4.90;;;;;;;;;;5033683;28;20039;-35
2022/05/08 07:49:47;;;;;;;13.63;5.57;;;;;;;;;;5051263;28;20521;-35
2022/05/08 07:52:12;;;;;;;8.25;4.82;;;;;;;;;;5051384;28;20032;-35
2022/05/08 07:54:38;;;;;;;8.65;5.32;;;;;;;;;;5051359;28;20414;-35
2022/05/08 07:57:03;;;;;;;9.85;5.65;;;;;;;;;;5051383;28;20037;-35
2022/05/08 07:59:29;;;;;;;9.18;5.72;;;;;;;;;;5049761;28;20473;-36
2022/05/08 08:01:54;;;;;;;6.55;5.30;;;;;;;;;;5051106;28;20025;-35
2022/05/08 08:04:20;;;;;;;6.75;4.82;;;;;;;;;;5050880;28;20404;-35
2022/05/08 08:06:45;;;;;;;11.23;5.45;;;;;;;;;;5051302;28;20058;-35
2022/05/08 08:09:11;;;;;;;6.55;5.18;;;;;;;;;;5051105;28;20025;-36
2022/05/08 08:11:38;;;;;;;6.80;4.50;;;;;;;;;;5053132;28;20061;-35
2022/05/08 08:14:04;;;;;;;7.07;4.65;;;;;;;;;;5054817;28;20609;-36
2022/05/08 08:16:30;;;;;;;7.28;5.82;;;;;;;;;;5054997;28;20024;-35
2022/05/08 08:18:58;;;;;;;5.85;5.10;;;;;;;;;;5054577;28;20513;-35
2022/05/08 08:21:23;;;;;;;6.22;4.70;;;;;;;;;;5054547;28;20495;-35
2022/05/08 08:23:49;;;;;;;10.88;5.47;;;;;;;;;;5054466;28;20028;-35
2022/05/08 08:26:15;;;;;;;9.32;5.22;;;;;;;;;;5054505;28;20025;-35
2022/05/08 08:28:41;;;;;;;9.15;4.53;;;;;;;;;;5054847;28;20066;-35
2022/05/08 08:31:07;;;;;;;7.70;4.88;;;;;;;;;;5054683;28;20471;-35
2022/05/08 08:33:33;;;;;;;15.02;4.80;;;;;;;;;;5054401;28;20063;-35
2022/05/08 08:35:58;;;;;;;6.70;4.88;;;;;;;;;;5054646;28;20025;-35
2022/05/08 08:38:24;;;;;;;6.13;4.82;;;;;;;;;;5054462;28;20634;-36
2022/05/08 08:40:49;;;;;;;6.72;4.80;;;;;;;;;;5054443;28;20495;-35
2022/05/08 08:43:18;;;;;;;13.10;5.60;;;;;;;;;;5054554;28;20024;-36
2022/05/08 08:48:29;;;;;;;7.35;4.28;;;;;;;;;;5054031;28;20082;-37
2022/05/08 08:50:59;;;;;;;10.98;4.90;;;;;;;;;;5054140;28;20024;-35
2022/05/08 08:53:25;;;;;;;7.18;4.60;;;;;;;;;;5054057;28;20108;-35
2022/05/08 08:55:51;;;;;;;6.05;5.05;;;;;;;;;;5053992;28;20025;-35
2022/05/08 08:58:18;;;;;;;7.93;5.05;;;;;;;;;;5053993;28;20108;-35
2022/05/08 09:00:46;;;;;;;5.00;3.80;;;;;;;;;;5053815;28;20024;-35
2022/05/08 09:03:12;;;;;;;9.35;5.68;;;;;;;;;;5053916;28;20040;-36
2022/05/08 09:05:38;;;;;;;6.50;4.13;;;;;;;;;;5053767;28;20025;-35
2022/05/08 09:08:03;;;;;;;6.38;4.25;;;;;;;;;;5053595;28;20033;-35
2022/05/08 09:10:35;;;;;;;8.18;4.55;;;;;;;;;;5053611;28;20105;-36
2022/05/08 09:13:02;;;;;;;9.45;5.53;;;;;;;;;;5053901;28;20033;-36
2022/05/08 09:15:29;;;;;;;8.68;5.80;;;;;;;;;;5053734;28;20021;-35
2022/05/08 09:17:56;;;;;;;5.63;4.00;;;;;;;;;;5053559;28;20025;-35
2022/05/08 09:20:29;;;;;;;6.75;4.50;;;;;;;;;;5053357;28;20036;-36
2022/05/08 09:23:02;;;;;;;7.88;3.72;;;;;;;;;;5052709;28;20387;-35
2022/05/08 09:25:43;;;;;;;6.50;5.15;;;;;;;;;;5053285;28;20403;-36
2022/05/08 09:28:13;;;;;;;7.00;4.03;;;;;;;;;;5053314;28;20033;-35
2022/05/08 09:30:54;;;;;;;6.78;3.90;;;;;;;;;;5035490;28;20060;-35
2022/05/08 09:33:30;;;;;;;6.80;3.85;;;;;;;;;;5053315;28;20418;-35
2022/05/08 09:35:57;;;;;;;7.80;4.18;;;;;;;;;;5053301;28;20033;-35
2022/05/08 09:38:22;;;;;;;5.43;3.67;;;;;;;;;;5053114;28;20029;-35
2022/05/08 09:41:03;;;;;;;5.20;4.38;;;;;;;;;;5053050;28;20021;-35
2022/05/08 09:43:29;;;;;;;4.68;3.22;;;;;;;;;;5052973;28;20056;-36
2022/05/08 09:45:58;;;;;;;5.32;3.13;;;;;;;;;;5053141;28;20052;-35
2022/05/08 09:48:28;;;;;;;5.13;3.55;;;;;;;;;;5053001;28;20502;-35
2022/05/08 09:50:55;;;;;;;3.15;2.83;;;;;;;;;;5053138;28;20033;-35
2022/05/08 09:53:21;;;;;;;6.28;3.47;;;;;;;;;;5052884;28;20083;-35
2022/05/08 09:55:47;;;;;;;7.93;4.20;;;;;;;;;;5052812;28;20039;-35
2022/05/08 09:58:12;;;;;;;6.60;3.95;;;;;;;;;;5053034;28;20025;-35
2022/05/08 10:00:39;;;;;;;6.15;3.22;;;;;;;;;;5052682;28;20041;-35
2022/05/08 10:03:06;;;;;;;5.10;2.95;;;;;;;;;;5052474;28;20037;-35
2022/05/08 10:05:32;;;;;;;3.85;3.35;;;;;;;;;;5052815;28;20108;-39
2022/05/08 10:07:59;;;;;;;3.47;3.10;;;;;;;;;;5052950;28;20029;-35
2022/05/08 10:15:52;;;;;;;8.55;3.17;;;;;;;;;;5052536;28;20031;-35
2022/05/08 10:18:22;;;;;;;8.93;3.40;;;;;;;;;;5052349;28;20063;-35
2022/05/08 10:21:12;;;;;;;13.68;3.30;;;;;;;;;;5052368;28;20060;-35
2022/05/08 10:23:47;;;;;;;4.00;3.13;;;;;;;;;;5052595;28;20040;-35
2022/05/08 10:26:14;;;;;;;8.23;4.32;;;;;;;;;;5052519;28;20100;-35
2022/05/08 10:28:58;;;;;;;4.45;3.35;;;;;;;;;;5052565;28;20024;-35
2022/05/08 10:31:43;;;;;;;4.60;3.50;;;;;;;;;;5052363;28;20016;-35
2022/05/08 10:34:09;;;;;;;4.32;2.95;;;;;;;;;;5051353;28;20040;-35
2022/05/08 10:36:35;;;;;;;6.10;4.32;;;;;;;;;;5051998;28;20020;-35
2022/05/08 10:39:35;;;;;;;4.68;3.35;;;;;;;;;;5052275;28;20491;-35
2022/05/08 10:42:00;;;;;;;5.43;3.05;;;;;;;;;;5052315;28;20044;-36
2022/05/08 10:44:37;;;;;;;5.47;3.55;;;;;;;;;;5051949;28;20017;-35
2022/05/08 10:47:21;;;;;;;4.13;3.10;;;;;;;;;;5051850;28;20594;-35
2022/05/08 10:49:46;;;;;;;6.82;4.05;;;;;;;;;;5051849;28;20033;-35
2022/05/08 10:52:12;;;;;;;5.22;3.10;;;;;;;;;;5052135;28;20021;-36
2022/05/08 10:54:37;;;;;;;6.25;3.40;;;;;;;;;;5051711;28;20452;-35
2022/05/08 10:57:02;;;;;;;7.80;3.97;;;;;;;;;;5052062;28;20024;-35
2022/05/08 10:59:43;;;;;;;10.73;3.95;;;;;;;;;;5051733;28;20510;-35
2022/05/08 11:02:09;;;;;;;6.45;3.53;;;;;;;;;;5051922;28;20060;-35
2022/05/08 11:04:50;;;;;;;5.55;4.18;;;;;;;;;;5051576;28;20122;-35
2022/05/08 11:07:21;;;;;;;17.20;3.88;;;;;;;;;;5051982;28;20040;-35
2022/05/08 11:09:47;;;;;;;4.80;3.92;;;;;;;;;;5051701;28;20133;-36
2022/05/08 11:12:12;;;;;;;4.95;3.10;;;;;;;;;;5051488;28;20025;-35
2022/05/08 11:14:38;;;;;;;6.88;3.88;;;;;;;;;;5051360;28;20112;-36
2022/05/08 11:17:13;;;;;;;4.80;3.45;;;;;;;;;;5051797;28;20017;-36
2022/05/08 11:19:59;;;;;;;9.73;3.80;;;;;;;;;;5051358;28;20128;-35
2022/05/08 11:22:25;;;;;;;5.07;4.13;;;;;;;;;;5051628;28;20029;-36
2022/05/08 11:24:51;;;;;;;11.45;3.88;;;;;;;;;;5051285;28;20479;-35
2022/05/08 11:27:16;;;;;;;5.35;4.38;;;;;;;;;;5033554;28;20106;-35
2022/05/08 11:29:48;;;;;;;4.28;3.53;;;;;;;;;;5051539;28;20447;-35
2022/05/08 11:38:00;;;;;;;11.80;3.88;;;;;;;;;;5051437;28;20098;-35
2022/05/08 11:40:30;;;;;;;5.30;3.03;;;;;;;;;;5051246;28;20041;-35
2022/05/08 11:42:55;;;;;;;9.13;4.05;;;;;;;;;;5051302;28;20258;-35
2022/05/08 11:45:21;;;;;;;4.82;3.03;;;;;;;;;;5051794;28;20048;-35
2022/05/08 11:47:50;;;;;;;4.22;3.40;;;;;;;;;;5055505;28;20104;-35
2022/05/08 11:50:16;;;;;;;8.52;4.85;;;;;;;;;;5055642;28;20158;-35
2022/05/08 11:52:43;;;;;;;5.93;3.00;;;;;;;;;;5055257;28;20482;-36
2022/05/08 11:55:08;;;;;;;4.20;3.28;;;;;;;;;;5037270;28;20029;-35
2022/05/08 11:57:44;;;;;;;5.80;3.15;;;;;;;;;;5053817;28;20024;-35
2022/05/08 12:00:13;;;;;;;6.95;4.00;;;;;;;;;;5037089;28;20087;-35
2022/05/08 12:02:50;;;;;;;5.38;4.60;;;;;;;;;;5055049;28;20147;-35
2022/05/08 12:05:21;;;;;;;8.77;3.37;;;;;;;;;;5055261;28;20028;-35
2022/05/08 12:07:47;;;;;;;5.97;2.42;;;;;;;;;;5054878;28;20082;-35
2022/05/08 12:10:12;;;;;;;7.00;2.97;;;;;;;;;;5054833;28;20025;-35
2022/05/08 12:12:38;;;;;;;6.90;3.15;;;;;;;;;;5054930;28;20048;-35
2022/05/08 12:15:07;;;;;;;9.55;3.17;;;;;;;;;;5055024;28;20098;-35
2022/05/08 12:17:41;;;;;;;8.15;3.58;;;;;;;;;;5054671;28;20036;-36
2022/05/08 12:20:13;;;;;;;5.53;3.22;;;;;;;;;;5054576;28;20041;-35
2022/05/08 12:22:39;;;;;;;5.38;3.00;;;;;;;;;;5054572;28;20082;-36
2022/05/08 12:25:08;;;;;;;5.05;4.13;;;;;;;;;;5054861;28;20501;-36
2022/05/08 12:27:34;;;;;;;8.35;4.72;;;;;;;;;;5054748;28;20037;-35
2022/05/08 12:29:59;;;;;;;7.45;3.78;;;;;;;;;;5054535;28;20053;-35
2022/05/08 12:32:25;;;;;;;5.18;3.67;;;;;;;;;;5054421;28;20033;-35
2022/05/08 12:34:53;;;;;;;5.38;3.90;;;;;;;;;;5054611;28;20151;-35
2022/05/08 12:37:19;;;;;;;7.97;4.00;;;;;;;;;;5054417;28;20064;-36
2022/05/08 12:39:45;;;;;;;8.90;3.72;;;;;;;;;;5054251;28;20024;-35
2022/05/08 12:42:11;;;;;;;6.60;4.25;;;;;;;;;;5054447;28;20087;-35
2022/05/08 12:44:36;;;;;;;8.38;3.38;;;;;;;;;;5054196;28;20033;-36
2022/05/08 12:47:05;;;;;;;7.78;3.78;;;;;;;;;;5054138;28;20060;-35
2022/05/08 12:49:31;;;;;;;10.98;4.40;;;;;;;;;;5054070;28;20025;-35
2022/05/08 12:51:56;;;;;;;6.72;3.60;;;;;;;;;;5054068;28;20549;-35
2022/05/08 12:54:22;;;;;;;4.20;2.90;;;;;;;;;;5036213;28;20403;-36
2022/05/08 12:56:47;;;;;;;4.75;3.30;;;;;;;;;;5053666;28;20518;-35
2022/05/08 13:01:59;;;;;;;3.88;2.60;;;;;;;;;;5053856;28;20036;-35
2022/05/08 13:04:25;;;;;;;5.68;3.97;;;;;;;;;;5053725;28;20048;-35
2022/05/08 13:06:50;;;;;;;6.82;3.67;;;;;;;;;;5053679;28;20073;-35
2022/05/08 13:09:16;;;;;;;3.63;2.97;;;;;;;;;;5053776;28;20112;-35
2022/05/08 13:11:42;;;;;;;7.63;3.25;;;;;;;;;;5053942;28;20575;-35
2022/05/08 13:14:08;;;;;;;6.82;2.70;;;;;;;;;;5054012;28;20013;-35
2022/05/08 13:16:34;;;;;;;6.50;4.03;;;;;;;;;;5053577;28;20035;-35
2022/05/08 13:19:00;;;;;;;8.02;3.40;;;;;;;;;;5053543;28;20075;-35
2022/05/08 13:21:26;;;;;;;10.40;3.38;;;;;;;;;;5053541;28;20391;-35
2022/05/08 13:23:51;;;;;;;7.25;3.70;;;;;;;;;;5053396;28;20025;-35
2022/05/08 13:26:17;;;;;;;4.78;3.20;;;;;;;;;;5053698;28;20074;-35
2022/05/08 13:28:43;;;;;;;11.10;3.55;;;;;;;;;;5053442;28;20024;-35
2022/05/08 13:31:09;;;;;;;3.83;3.03;;;;;;;;;;5053308;28;20020;-35
2022/05/08 13:33:35;;;;;;;6.88;2.70;;;;;;;;;;5035581;28;20028;-35
2022/05/08 13:36:02;;;;;;;4.53;3.40;;;;;;;;;;5053651;28;20387;-35
2022/05/08 13:38:28;;;;;;;6.05;3.40;;;;;;;;;;5053229;28;20021;-35
2022/05/08 13:40:57;;;;;;;6.15;2.95;;;;;;;;;;5051869;28;20041;-35
2022/05/08 13:43:23;;;;;;;3.38;2.90;;;;;;;;;;5053519;28;20013;-35
2022/05/08 13:45:49;;;;;;;4.25;3.08;;;;;;;;;;5053052;28;20033;-35
2022/05/08 13:48:15;;;;;;;2.83;2.53;;;;;;;;;;5053399;28;20017;-35
2022/05/08 13:50:42;;;;;;;3.78;2.88;;;;;;;;;;5053259;28;20388;-36
2022/05/08 13:53:08;;;;;;;6.68;2.85;;;;;;;;;;5053023;28;20519;-35
2022/05/08 13:55:38;;;;;;;7.28;2.63;;;;;;;;;;5035099;28;20442;-35
2022/05/08 13:58:07;;;;;;;10.40;3.13;;;;;;;;;;5053056;28;20033;-35
2022/05/08 14:00:33;;;;;;;4.65;3.08;;;;;;;;;;5052665;28;20040;-35
2022/05/08 14:02:59;;;;;;;4.70;2.53;;;;;;;;;;5052707;28;20048;-35
2022/05/08 14:05:24;;;;;;;3.00;2.40;;;;;;;;;;5053022;28;20065;-35
2022/05/08 14:07:50;;;;;;;3.50;2.88;;;;;;;;;;5052920;28;20391;-35
2022/05/08 14:10:15;;;;;;;6.85;2.90;;;;;;;;;;5052487;28;20384;-35
2022/05/08 14:12:41;;;;;;;7.38;2.63;;;;;;;;;;5052510;28;20020;-35
2022/05/08 14:15:06;;;;;;;3.00;2.50;;;;;;;;;;5052542;28;20036;-35
2022/05/08 14:17:32;;;;;;;6.60;2.65;;;;;;;;;;5052740;28;20025;-35
2022/05/08 14:19:58;;;;;;;3.95;2.85;;;;;;;;;;5052509;28;20063;-35
2022/05/08 14:22:25;;;;;;;3.47;2.45;;;;;;;;;;5052344;28;20016;-35
2022/05/08 14:24:51;;;;;;;5.00;2.63;;;;;;;;;;5034462;28;20480;-36
2022/05/08 14:27:16;;;;;;;3.85;2.80;;;;;;;;;;5052249;28;20104;-38
2022/05/08 14:29:42;;;;;;;3.33;2.63;;;;;;;;;;5051989;28;20376;-36
2022/05/08 14:37:35;;;;;;;3.75;2.75;;;;;;;;;;5052103;28;20033;-36
2022/05/08 14:40:01;;;;;;;3.47;2.83;;;;;;;;;;5052328;28;20044;-35
2022/05/08 14:42:26;;;;;;;5.07;2.45;;;;;;;;;;5052211;28;20044;-35
2022/05/08 14:44:52;;;;;;;13.38;2.45;;;;;;;;;;5051972;28;20392;-35
2022/05/08 14:47:18;;;;;;;5.00;2.42;;;;;;;;;;5052081;28;20031;-35
2022/05/08 14:49:44;;;;;;;3.58;2.67;;;;;;;;;;5051885;28;20491;-36
2022/05/08 14:52:09;;;;;;;2.58;1.95;;;;;;;;;;5051886;28;20040;-35
2022/05/08 14:54:34;;;;;;;3.50;2.33;;;;;;;;;;5051967;28;20455;-36
2022/05/08 14:57:00;;;;;;;5.85;2.70;;;;;;;;;;5051844;28;20040;-35
2022/05/08 14:59:25;;;;;;;3.88;2.70;;;;;;;;;;5051927;28;20028;-35
2022/05/08 15:01:51;;;;;;;2.90;2.13;;;;;;;;;;5051484;28;20041;-35
2022/05/08 15:04:21;;;;;;;4.88;2.63;;;;;;;;;;5051466;28;20525;-35
2022/05/08 15:06:47;;;;;;;2.65;2.17;;;;;;;;;;5052264;28;20055;-35
2022/05/08 15:09:13;;;;;;;3.75;2.58;;;;;;;;;;5033940;28;20024;-43
2022/05/08 15:11:39;;;;;;;2.97;2.65;;;;;;;;;;5051426;28;20108;-35
2022/05/08 15:14:06;;;;;;;6.75;2.63;;;;;;;;;;5051781;28;20090;-35
2022/05/08 15:16:31;;;;;;;5.57;2.70;;;;;;;;;;5050199;28;20438;-35
2022/05/08 15:18:57;;;;;;;4.53;2.47;;;;;;;;;;5051306;28;20068;-35
2022/05/08 15:21:23;;;;;;;6.15;2.15;;;;;;;;;;5050928;28;20060;-35